createdAt,value
2019-04-01T00:00:39.415Z,11.40
2019-04-01T00:01:39.395Z,11.20
2019-04-01T00:02:39.388Z,11.60
2019-04-01T00:03:39.351Z,11.80
2019-04-01T00:04:39.327Z,11.30
2019-04-01T00:05:39.302Z,10.80
2019-04-01T00:06:39.284Z,11.00
2019-04-01T00:07:39.263Z,11.40
2019-04-01T00:08:39.253Z,11.70
2019-04-01T00:09:39.218Z,12.50
2019-04-01T00:10:39.194Z,11.10
2019-04-01T00:11:39.173Z,12.30
2019-04-01T00:12:39.151Z,11.30
2019-04-01T00:13:39.147Z,11.30
2019-04-01T00:14:39.106Z,11.60
2019-04-01T00:15:39.083Z,12.70
2019-04-01T00:16:39.062Z,12.20
2019-04-01T00:17:39.038Z,11.80
2019-04-01T00:18:39.033Z,12.10
2019-04-01T00:19:38.998Z,11.50
2019-04-01T00:20:38.973Z,11.30
2019-04-01T00:21:38.949Z,11.70
2019-04-01T00:22:39.074Z,11.90
2019-04-01T00:23:38.922Z,11.30
2019-04-01T00:24:38.885Z,11.50
2019-04-01T00:25:38.863Z,12.50
2019-04-01T00:26:38.844Z,11.60
2019-04-01T00:27:38.820Z,12.00
2019-04-01T00:28:38.817Z,11.60
2019-04-01T00:29:38.771Z,11.90
2019-04-01T00:30:38.751Z,11.50
2019-04-01T00:31:38.732Z,11.70
2019-04-01T00:32:38.706Z,11.90
2019-04-01T00:33:38.687Z,11.90
2019-04-01T00:34:38.675Z,12.00
2019-04-01T00:35:38.638Z,12.10
2019-04-01T00:36:38.620Z,11.90
2019-04-01T00:37:38.594Z,12.20
2019-04-01T00:38:38.572Z,11.50
2019-04-01T00:39:38.565Z,12.30
2019-04-01T00:40:38.529Z,11.60
2019-04-01T00:41:38.509Z,11.90
2019-04-01T00:42:38.482Z,12.60
2019-04-01T00:43:38.466Z,11.80
2019-04-01T00:44:40.373Z,12.00
2019-04-01T00:45:38.418Z,11.90
2019-04-01T00:46:38.392Z,11.60
2019-04-01T00:47:38.370Z,12.00
2019-04-01T00:48:38.350Z,11.80
2019-04-01T00:49:38.330Z,12.20
2019-04-01T00:50:38.313Z,11.50
2019-04-01T00:51:38.283Z,11.60
2019-04-01T00:52:38.260Z,12.10
2019-04-01T00:53:38.237Z,12.00
2019-04-01T00:54:38.212Z,11.60
2019-04-01T00:55:38.207Z,12.30
2019-04-01T00:56:38.173Z,12.60
2019-04-01T00:57:38.144Z,12.10
2019-04-01T00:58:38.124Z,11.80
2019-04-01T00:59:38.101Z,12.00
2019-04-01T01:00:38.092Z,12.30
2019-04-01T01:01:38.055Z,11.70
2019-04-01T01:02:38.034Z,12.00
2019-04-01T01:03:38.018Z,11.30
2019-04-01T01:04:37.994Z,11.50
2019-04-01T01:05:37.980Z,12.20
2019-04-01T01:06:37.940Z,11.40
2019-04-01T01:07:37.921Z,11.40
2019-04-01T01:08:37.898Z,12.00
2019-04-01T01:09:37.888Z,11.40
2019-04-01T01:10:37.853Z,11.70
2019-04-01T01:11:37.844Z,11.80
2019-04-01T01:12:37.808Z,11.60
2019-04-01T01:13:37.787Z,11.80
2019-04-01T01:14:37.758Z,11.60
2019-04-01T01:15:37.739Z,11.80
2019-04-01T01:16:37.732Z,11.60
2019-04-01T01:17:37.692Z,11.40
2019-04-01T01:18:37.752Z,11.30
2019-04-01T01:19:37.652Z,11.80
2019-04-01T01:20:37.625Z,12.00
2019-04-01T01:21:37.602Z,12.00
2019-04-01T01:22:37.593Z,11.10
2019-04-01T01:23:37.555Z,10.90
2019-04-01T01:24:37.538Z,10.60
2019-04-01T01:25:37.509Z,11.30
2019-04-01T01:26:37.485Z,11.80
2019-04-01T01:27:37.481Z,11.80
2019-04-01T01:28:37.447Z,11.80
2019-04-01T01:29:37.420Z,11.80
2019-04-01T01:30:37.396Z,11.20
2019-04-01T01:31:37.372Z,10.80
2019-04-01T01:32:37.388Z,11.30
2019-04-01T01:33:37.325Z,11.60
2019-04-01T01:34:37.306Z,11.50
2019-04-01T01:35:37.281Z,11.20
2019-04-01T01:36:37.259Z,11.40
2019-04-01T01:37:37.235Z,11.60
2019-04-01T01:38:37.229Z,11.20
2019-04-01T01:39:37.189Z,11.80
2019-04-01T01:40:37.168Z,11.40
2019-04-01T01:41:37.142Z,11.50
2019-04-01T01:42:37.121Z,11.30
2019-04-01T01:43:37.112Z,11.90
2019-04-01T01:44:37.076Z,11.00
2019-04-01T01:45:37.056Z,11.20
2019-04-01T01:46:37.031Z,11.60
2019-04-01T01:47:37.008Z,11.70
2019-04-01T01:48:36.994Z,12.00
2019-04-01T01:49:36.959Z,11.80
2019-04-01T01:50:36.941Z,11.70
2019-04-01T01:51:36.914Z,11.60
2019-04-01T01:52:36.891Z,12.20
2019-04-01T01:53:36.885Z,11.50
2019-04-01T01:54:36.845Z,11.90
2019-04-01T01:55:36.822Z,11.40
2019-04-01T01:56:36.798Z,11.70
2019-04-01T01:57:36.777Z,11.90
2019-04-01T01:58:36.781Z,12.50
2019-04-01T01:59:36.728Z,12.10
2019-04-01T02:00:36.706Z,11.90
2019-04-01T02:01:36.683Z,11.80
2019-04-01T02:02:36.661Z,12.00
2019-04-01T02:03:36.653Z,10.90
2019-04-01T02:04:36.613Z,11.30
2019-04-01T02:05:36.592Z,11.20
2019-04-01T02:06:36.572Z,10.40
2019-04-01T02:07:36.546Z,11.60
2019-04-01T02:08:36.539Z,11.50
2019-04-01T02:09:36.500Z,11.70
2019-04-01T02:10:36.476Z,11.60
2019-04-01T02:11:36.451Z,10.60
2019-04-01T02:12:36.429Z,11.20
2019-04-01T02:13:36.422Z,11.40
2019-04-01T02:14:36.384Z,11.00
2019-04-01T02:15:36.362Z,11.40
2019-04-01T02:16:36.336Z,11.00
2019-04-01T02:17:36.313Z,11.40
2019-04-01T02:18:36.304Z,10.70
2019-04-01T02:19:36.272Z,10.70
2019-04-01T02:20:36.240Z,11.50
2019-04-01T02:21:36.219Z,11.10
2019-04-01T02:22:36.205Z,10.80
2019-04-01T02:23:36.187Z,11.30
2019-04-01T02:24:36.151Z,11.10
2019-04-01T02:25:36.125Z,10.70
2019-04-01T02:26:36.104Z,11.20
2019-04-01T02:27:36.079Z,10.70
2019-04-01T02:28:36.073Z,11.60
2019-04-01T02:29:36.034Z,10.60
2019-04-01T02:30:36.011Z,11.00
2019-04-01T02:31:35.994Z,11.00
2019-04-01T02:32:35.967Z,10.80
2019-04-01T02:33:35.963Z,10.50
2019-04-01T02:34:35.919Z,11.60
2019-04-01T02:35:35.896Z,11.00
2019-04-01T02:36:35.872Z,10.70
2019-04-01T02:37:35.845Z,9.90
2019-04-01T02:38:35.841Z,10.10
2019-04-01T02:39:35.800Z,10.90
2019-04-01T02:40:35.776Z,10.50
2019-04-01T02:41:35.755Z,11.20
2019-04-01T02:42:35.729Z,10.70
2019-04-01T02:43:35.709Z,11.00
2019-04-01T02:44:35.702Z,11.20
2019-04-01T02:45:35.660Z,10.10
2019-04-01T02:46:35.634Z,10.70
2019-04-01T02:47:35.615Z,10.80
2019-04-01T02:48:35.589Z,10.50
2019-04-01T02:49:35.583Z,11.00
2019-04-01T02:50:35.539Z,10.10
2019-04-01T02:51:35.517Z,10.60
2019-04-01T02:52:35.496Z,10.50
2019-04-01T02:53:35.551Z,10.10
2019-04-01T02:54:35.464Z,10.70
2019-04-01T02:55:35.425Z,10.50
2019-04-01T02:56:35.401Z,10.80
2019-04-01T02:57:35.376Z,11.40
2019-04-01T02:58:35.373Z,10.80
2019-04-01T02:59:35.346Z,11.00
2019-04-01T03:00:35.305Z,10.30
2019-04-01T03:01:35.284Z,11.20
2019-04-01T03:02:35.258Z,11.70
2019-04-01T03:03:35.239Z,10.40
2019-04-01T03:04:35.232Z,9.70
2019-04-01T03:05:35.187Z,11.10
2019-04-01T03:06:35.165Z,11.10
2019-04-01T03:07:35.143Z,10.90
2019-04-01T03:08:35.121Z,10.80
2019-04-01T03:09:35.093Z,10.50
2019-04-01T03:10:35.086Z,11.20
2019-04-01T03:11:35.049Z,10.50
2019-04-01T03:12:35.024Z,10.90
2019-04-01T03:13:35.007Z,10.90
2019-04-01T03:14:34.977Z,11.20
2019-04-01T03:15:34.965Z,11.30
2019-04-01T03:16:34.933Z,11.30
2019-04-01T03:17:34.905Z,11.00
2019-04-01T03:18:34.886Z,11.30
2019-04-01T03:19:34.861Z,11.00
2019-04-01T03:20:34.848Z,10.50
2019-04-01T03:21:34.811Z,10.40
2019-04-01T03:22:34.797Z,11.30
2019-04-01T03:23:34.772Z,11.20
2019-04-01T03:24:34.743Z,11.10
2019-04-01T03:25:34.731Z,11.00
2019-04-01T03:26:34.695Z,10.60
2019-04-01T03:27:34.669Z,10.90
2019-04-01T03:28:34.660Z,10.70
2019-04-01T03:29:34.622Z,11.10
2019-04-01T03:30:34.614Z,9.90
2019-04-01T03:31:34.579Z,11.60
2019-04-01T03:32:34.550Z,11.00
2019-04-01T03:33:34.567Z,11.70
2019-04-01T03:34:34.503Z,11.40
2019-04-01T03:35:34.477Z,11.60
2019-04-01T03:36:34.467Z,11.00
2019-04-01T03:37:34.440Z,10.50
2019-04-01T03:38:34.413Z,10.40
2019-04-01T03:39:34.383Z,10.60
2019-04-01T03:40:34.359Z,11.10
2019-04-01T03:41:34.406Z,10.80
2019-04-01T03:42:34.315Z,11.30
2019-04-01T03:43:34.290Z,11.00
2019-04-01T03:44:34.265Z,11.00
2019-04-01T03:45:34.242Z,10.10
2019-04-01T03:46:34.233Z,12.30
2019-04-01T03:47:34.205Z,10.80
2019-04-01T03:48:34.168Z,10.80
2019-04-01T03:49:34.147Z,10.80
2019-04-01T03:50:34.121Z,9.90
2019-04-01T03:51:34.099Z,10.10
2019-04-01T03:52:34.096Z,10.60
2019-04-01T03:53:34.048Z,10.80
2019-04-01T03:54:34.025Z,10.60
2019-04-01T03:55:34.001Z,9.90
2019-04-01T03:56:33.985Z,10.70
2019-04-01T03:57:33.970Z,10.20
2019-04-01T03:58:33.943Z,10.40
2019-04-01T03:59:33.913Z,10.20
2019-04-01T04:00:33.881Z,9.40
2019-04-01T04:01:33.877Z,9.20
2019-04-01T04:02:33.869Z,8.90
2019-04-01T04:03:33.811Z,9.70
2019-04-01T04:04:33.801Z,10.60
2019-04-01T04:05:33.762Z,9.60
2019-04-01T04:06:33.759Z,10.10
2019-04-01T04:07:33.715Z,10.70
2019-04-01T04:08:33.706Z,10.10
2019-04-01T04:09:33.666Z,10.50
2019-04-01T04:10:33.641Z,10.50
2019-04-01T04:11:33.631Z,11.00
2019-04-01T04:12:33.594Z,9.50
2019-04-01T04:13:33.583Z,9.80
2019-04-01T04:14:33.550Z,10.40
2019-04-01T04:15:33.528Z,10.00
2019-04-01T04:16:33.509Z,10.40
2019-04-01T04:17:33.475Z,10.50
2019-04-01T04:18:33.466Z,9.60
2019-04-01T04:19:33.428Z,9.50
2019-04-01T04:20:33.415Z,10.20
2019-04-01T04:21:33.380Z,10.10
2019-04-01T04:22:33.359Z,9.70
2019-04-01T04:23:33.346Z,10.40
2019-04-01T04:24:33.308Z,10.20
2019-04-01T04:25:33.282Z,10.60
2019-04-01T04:26:42.345Z,10.80
2019-04-01T04:27:40.886Z,10.00
2019-04-01T04:28:40.256Z,10.50
2019-04-01T04:29:42.451Z,10.10
2019-04-01T04:30:40.991Z,10.00
2019-04-01T04:31:33.134Z,10.30
2019-04-01T04:32:33.112Z,10.10
2019-04-01T04:33:33.096Z,9.90
2019-04-01T04:34:33.060Z,10.20
2019-04-01T04:35:33.039Z,10.40
2019-04-01T04:36:33.013Z,10.10
2019-04-01T04:37:32.991Z,11.20
2019-04-01T04:38:32.991Z,10.70
2019-04-01T04:39:32.939Z,10.50
2019-04-01T04:40:32.914Z,9.80
2019-04-01T04:41:32.890Z,9.90
2019-04-01T04:42:32.866Z,10.30
2019-04-01T04:43:32.856Z,9.90
2019-04-01T04:44:32.816Z,10.20
2019-04-01T04:45:32.792Z,10.20
2019-04-01T04:46:32.776Z,9.90
2019-04-01T04:47:32.744Z,10.60
2019-04-01T04:48:32.735Z,10.00
2019-04-01T04:49:32.695Z,10.00
2019-04-01T04:50:32.669Z,9.80
2019-04-01T04:51:32.649Z,10.00
2019-04-01T04:52:32.624Z,9.80
2019-04-01T04:53:32.610Z,9.50
2019-04-01T04:54:32.573Z,10.40
2019-04-01T04:55:32.550Z,10.80
2019-04-01T04:56:32.526Z,9.60
2019-04-01T04:57:32.503Z,10.70
2019-04-01T04:58:32.493Z,10.20
2019-04-01T04:59:32.453Z,10.30
2019-04-01T05:00:32.428Z,10.30
2019-04-01T05:01:32.405Z,9.30
2019-04-01T05:02:32.382Z,10.50
2019-04-01T05:03:32.376Z,10.00
2019-04-01T05:04:32.333Z,9.60
2019-04-01T05:05:32.308Z,11.10
2019-04-01T05:06:32.284Z,9.80
2019-04-01T05:07:32.262Z,9.90
2019-04-01T05:08:32.252Z,10.70
2019-04-01T05:09:32.210Z,10.60
2019-04-01T05:10:32.188Z,10.20
2019-04-01T05:11:32.162Z,10.20
2019-04-01T05:12:32.140Z,10.00
2019-04-01T05:13:32.135Z,9.80
2019-04-01T05:14:32.090Z,10.20
2019-04-01T05:15:32.063Z,10.00
2019-04-01T05:16:32.040Z,9.10
2019-04-01T05:17:32.020Z,9.70
2019-04-01T05:18:32.006Z,9.80
2019-04-01T05:19:31.973Z,9.30
2019-04-01T05:20:31.945Z,9.30
2019-04-01T05:21:31.921Z,9.70
2019-04-01T05:22:31.897Z,9.90
2019-04-01T05:23:31.886Z,9.40
2019-04-01T05:24:31.847Z,9.90
2019-04-01T05:25:32.096Z,9.90
2019-04-01T05:26:31.797Z,9.70
2019-04-01T05:27:31.774Z,9.60
2019-04-01T05:28:31.767Z,9.50
2019-04-01T05:29:31.723Z,8.80
2019-04-01T05:30:31.701Z,9.20
2019-04-01T05:31:31.678Z,9.30
2019-04-01T05:32:31.659Z,9.70
2019-04-01T05:33:31.639Z,8.90
2019-04-01T05:34:31.607Z,9.10
2019-04-01T05:35:31.580Z,9.10
2019-04-01T05:36:31.600Z,9.40
2019-04-01T05:37:31.532Z,8.80
2019-04-01T05:38:31.521Z,9.00
2019-04-01T05:39:31.481Z,8.80
2019-04-01T05:40:31.461Z,9.20
2019-04-01T05:41:31.435Z,9.10
2019-04-01T05:42:31.414Z,8.70
2019-04-01T05:43:31.415Z,9.30
2019-04-01T05:44:31.361Z,8.50
2019-04-01T05:45:31.340Z,8.40
2019-04-01T05:46:31.314Z,8.80
2019-04-01T05:47:31.288Z,10.20
2019-04-01T05:48:31.291Z,10.60
2019-04-01T05:49:31.241Z,10.80
2019-04-01T05:50:31.217Z,10.80
2019-04-01T05:51:31.194Z,9.50
2019-04-01T05:52:31.170Z,10.10
2019-04-01T05:53:31.184Z,9.80
2019-04-01T05:54:31.137Z,9.50
2019-04-01T05:55:31.096Z,11.00
2019-04-01T05:56:31.072Z,9.30
2019-04-01T05:57:31.048Z,9.10
2019-04-01T05:58:31.038Z,9.90
2019-04-01T05:59:31.005Z,9.30
2019-04-01T06:00:30.977Z,9.20
2019-04-01T06:01:30.951Z,9.10
2019-04-01T06:02:30.927Z,9.90
2019-04-01T06:03:30.917Z,9.30
2019-04-01T06:04:30.879Z,9.20
2019-04-01T06:05:30.857Z,8.70
2019-04-01T06:06:30.833Z,9.40
2019-04-01T06:07:30.821Z,9.60
2019-04-01T06:08:30.795Z,9.30
2019-04-01T06:09:30.758Z,9.00
2019-04-01T06:10:30.742Z,9.60
2019-04-01T06:11:30.710Z,8.80
2019-04-01T06:12:30.692Z,8.30
2019-04-01T06:13:30.680Z,8.80
2019-04-01T06:14:30.639Z,8.60
2019-04-01T06:15:30.614Z,8.20
2019-04-01T06:16:30.593Z,8.80
2019-04-01T06:17:30.568Z,8.60
2019-04-01T06:18:30.547Z,8.00
2019-04-01T06:19:30.544Z,8.00
2019-04-01T06:20:30.499Z,8.60
2019-04-01T06:21:30.473Z,8.50
2019-04-01T06:22:30.450Z,8.20
2019-04-01T06:23:30.429Z,8.40
2019-04-01T06:24:30.420Z,7.70
2019-04-01T06:25:30.381Z,7.80
2019-04-01T06:26:30.362Z,7.10
2019-04-01T06:27:30.603Z,6.80
2019-04-01T06:28:30.310Z,6.80
2019-04-01T06:29:30.304Z,6.60
2019-04-01T06:30:30.268Z,6.80
2019-04-01T06:31:30.241Z,6.70
2019-04-01T06:32:30.220Z,6.20
2019-04-01T06:33:30.197Z,6.20
2019-04-01T06:34:30.176Z,6.70
2019-04-01T06:35:30.168Z,5.70
2019-04-01T06:36:30.129Z,6.10
2019-04-01T06:37:30.105Z,6.10
2019-04-01T06:38:30.081Z,6.40
2019-04-01T06:39:30.062Z,6.40
2019-04-01T06:40:30.053Z,5.70
2019-04-01T06:41:30.015Z,6.00
2019-04-01T06:42:29.991Z,5.90
2019-04-01T06:43:29.971Z,6.30
2019-04-01T06:44:29.948Z,6.00
2019-04-01T06:45:29.937Z,5.00
2019-04-01T06:46:29.906Z,5.90
2019-04-01T06:47:29.882Z,6.00
2019-04-01T06:48:29.858Z,5.30
2019-04-01T06:49:29.834Z,5.70
2019-04-01T06:50:29.828Z,4.80
2019-04-01T06:51:29.790Z,5.10
2019-04-01T06:52:29.769Z,4.60
2019-04-01T06:53:30.432Z,5.00
2019-04-01T06:54:29.723Z,4.50
2019-04-01T06:55:29.737Z,4.40
2019-04-01T06:56:29.679Z,4.60
2019-04-01T06:57:29.654Z,4.30
2019-04-01T06:58:29.636Z,4.50
2019-04-01T06:59:29.612Z,4.40
2019-04-01T07:00:29.590Z,4.10
2019-04-01T07:01:29.578Z,4.10
2019-04-01T07:02:29.545Z,3.90
2019-04-01T07:03:29.523Z,4.20
2019-04-01T07:04:29.502Z,4.00
2019-04-01T07:05:29.477Z,4.20
2019-04-01T07:06:29.477Z,3.80
2019-04-01T07:07:29.435Z,4.20
2019-04-01T07:08:29.413Z,4.10
2019-04-01T07:09:29.387Z,3.80
2019-04-01T07:10:29.370Z,4.10
2019-04-01T07:11:29.376Z,4.10
2019-04-01T07:12:29.326Z,4.10
2019-04-01T07:13:29.303Z,4.30
2019-04-01T07:14:29.286Z,4.00
2019-04-01T07:15:29.257Z,4.00
2019-04-01T07:16:29.265Z,4.30
2019-04-01T07:17:29.214Z,4.30
2019-04-01T07:18:29.194Z,3.90
2019-04-01T07:19:29.172Z,4.00
2019-04-01T07:20:29.153Z,4.10
2019-04-01T07:21:29.148Z,4.40
2019-04-01T07:22:29.106Z,3.80
2019-04-01T07:23:29.083Z,4.00
2019-04-01T07:24:29.063Z,4.00
2019-04-01T07:25:29.043Z,4.20
2019-04-01T07:26:29.056Z,3.70
2019-04-01T07:27:28.999Z,4.00
2019-04-01T07:28:28.979Z,3.70
2019-04-01T07:29:28.958Z,3.70
2019-04-01T07:30:28.936Z,3.70
2019-04-01T07:31:28.914Z,3.70
2019-04-01T07:32:28.907Z,3.70
2019-04-01T07:33:28.873Z,3.60
2019-04-01T07:34:28.853Z,3.80
2019-04-01T07:35:28.847Z,4.10
2019-04-01T07:36:28.811Z,3.50
2019-04-01T07:37:28.800Z,3.90
2019-04-01T07:38:28.766Z,3.90
2019-04-01T07:39:28.749Z,3.50
2019-04-01T07:40:28.727Z,3.90
2019-04-01T07:41:28.721Z,3.70
2019-04-01T07:42:28.699Z,3.60
2019-04-01T07:43:28.665Z,3.90
2019-04-01T07:44:28.643Z,3.50
2019-04-01T07:45:28.622Z,4.20
2019-04-01T07:46:28.601Z,3.80
2019-04-01T07:47:28.600Z,3.70
2019-04-01T07:48:28.559Z,3.90
2019-04-01T07:49:28.538Z,4.10
2019-04-01T07:50:28.531Z,4.40
2019-04-01T07:51:28.509Z,3.40
2019-04-01T07:52:28.478Z,3.90
2019-04-01T07:53:28.471Z,3.70
2019-04-01T07:54:28.433Z,4.10
2019-04-01T07:55:29.355Z,3.80
2019-04-01T07:56:28.393Z,4.20
2019-04-01T07:57:28.385Z,4.00
2019-04-01T07:58:28.351Z,3.80
2019-04-01T07:59:28.335Z,4.60
2019-04-01T08:00:28.315Z,3.40
2019-04-01T08:01:28.293Z,4.10
2019-04-01T08:02:28.289Z,4.00
2019-04-01T08:03:28.249Z,4.00
2019-04-01T08:04:28.228Z,3.90
2019-04-01T08:05:28.207Z,3.70
2019-04-01T08:06:28.189Z,4.30
2019-04-01T08:07:28.177Z,4.00
2019-04-01T08:08:28.147Z,4.10
2019-04-01T08:09:28.125Z,4.70
2019-04-01T08:10:28.105Z,4.60
2019-04-01T08:11:28.131Z,4.40
2019-04-01T08:12:28.145Z,4.50
2019-04-01T08:13:28.042Z,3.80
2019-04-01T08:14:28.020Z,4.20
2019-04-01T08:15:28.003Z,4.30
2019-04-01T08:16:27.985Z,4.90
2019-04-01T08:17:27.974Z,4.50
2019-04-01T08:18:27.941Z,4.50
2019-04-01T08:19:27.921Z,5.00
2019-04-01T08:20:27.903Z,4.80
2019-04-01T08:21:27.879Z,5.20
2019-04-01T08:22:27.879Z,4.70
2019-04-01T08:23:27.839Z,5.00
2019-04-01T08:24:27.821Z,4.10
2019-04-01T08:25:27.799Z,4.40
2019-04-01T08:26:27.777Z,4.40
2019-04-01T08:27:27.770Z,4.90
2019-04-01T08:28:27.744Z,4.40
2019-04-01T08:29:30.306Z,4.90
2019-04-01T08:30:27.697Z,4.20
2019-04-01T08:31:27.678Z,4.30
2019-04-01T08:32:27.671Z,4.80
2019-04-01T08:33:27.637Z,4.60
2019-04-01T08:34:27.616Z,4.40
2019-04-01T08:35:27.598Z,4.80
2019-04-01T08:36:27.579Z,4.80
2019-04-01T08:37:27.574Z,4.70
2019-04-01T08:38:27.553Z,4.70
2019-04-01T08:39:27.519Z,4.60
2019-04-01T08:40:27.500Z,4.10
2019-04-01T08:41:27.478Z,4.80
2019-04-01T08:42:27.472Z,4.70
2019-04-01T08:43:27.436Z,5.00
2019-04-01T08:44:27.416Z,4.70
2019-04-01T08:45:27.395Z,4.50
2019-04-01T08:46:27.376Z,4.70
2019-04-01T08:47:27.372Z,4.60
2019-04-01T08:48:27.336Z,4.80
2019-04-01T08:49:27.316Z,4.90
2019-04-01T08:50:27.295Z,4.70
2019-04-01T08:51:27.277Z,4.60
2019-04-01T08:52:27.257Z,4.80
2019-04-01T08:53:27.253Z,4.50
2019-04-01T08:54:27.217Z,4.70
2019-04-01T08:55:27.199Z,4.50
2019-04-01T08:56:27.177Z,4.40
2019-04-01T08:57:27.156Z,4.80
2019-04-01T08:58:27.157Z,5.20
2019-04-01T08:59:27.119Z,5.20
2019-04-01T09:00:27.100Z,4.70
2019-04-01T09:01:34.998Z,4.80
2019-04-01T09:02:27.059Z,4.80
2019-04-01T09:03:27.038Z,4.50
2019-04-01T09:04:27.037Z,4.90
2019-04-01T09:05:27.000Z,4.50
2019-04-01T09:06:26.980Z,4.60
2019-04-01T09:07:26.958Z,5.10
2019-04-01T09:08:26.938Z,5.10
2019-04-01T09:09:26.933Z,4.50
2019-04-01T09:10:26.903Z,5.20
2019-04-01T09:11:26.879Z,5.10
2019-04-01T09:12:26.868Z,4.80
2019-04-01T09:13:26.841Z,4.70
2019-04-01T09:14:26.841Z,4.60
2019-04-01T09:15:26.800Z,4.90
2019-04-01T09:16:26.783Z,4.90
2019-04-01T09:17:26.766Z,5.10
2019-04-01T09:18:26.746Z,5.00
2019-04-01T09:19:26.725Z,5.20
2019-04-01T09:20:26.720Z,5.20
2019-04-01T09:21:26.686Z,5.60
2019-04-01T09:22:26.675Z,5.10
2019-04-01T09:23:26.647Z,5.10
2019-04-01T09:24:26.627Z,5.20
2019-04-01T09:25:26.622Z,5.20
2019-04-01T09:26:26.594Z,5.80
2019-04-01T09:27:26.571Z,5.00
2019-04-01T09:28:26.550Z,4.90
2019-04-01T09:29:26.531Z,5.30
2019-04-01T09:30:26.531Z,5.80
2019-04-01T09:31:26.495Z,5.20
2019-04-01T09:32:26.475Z,5.30
2019-04-01T09:33:26.455Z,5.20
2019-04-01T09:34:26.436Z,5.70
2019-04-01T09:35:26.416Z,5.20
2019-04-01T09:36:26.414Z,5.20
2019-04-01T09:37:26.380Z,5.30
2019-04-01T09:38:26.358Z,5.50
2019-04-01T09:39:26.343Z,5.60
2019-04-01T09:40:26.326Z,5.20
2019-04-01T09:41:26.318Z,5.60
2019-04-01T09:42:26.284Z,5.40
2019-04-01T09:43:26.311Z,6.20
2019-04-01T09:44:36.662Z,6.20
2019-04-01T09:45:26.225Z,5.70
2019-04-01T09:46:26.227Z,5.80
2019-04-01T09:47:26.193Z,5.80
2019-04-01T09:48:26.171Z,5.80
2019-04-01T09:49:26.152Z,6.00
2019-04-01T09:50:26.134Z,5.70
2019-04-01T09:51:26.132Z,6.20
2019-04-01T09:52:26.097Z,6.00
2019-04-01T09:53:26.079Z,6.30
2019-04-01T09:54:26.058Z,6.40
2019-04-01T09:55:26.040Z,5.70
2019-04-01T09:56:26.026Z,6.00
2019-04-01T09:57:26.019Z,5.80
2019-04-01T09:58:25.984Z,6.30
2019-04-01T09:59:25.965Z,5.80
2019-04-01T10:00:25.948Z,5.90
2019-04-01T10:01:25.930Z,5.70
2019-04-01T10:02:32.164Z,5.90
2019-04-01T10:03:25.894Z,5.90
2019-04-01T10:04:25.872Z,6.10
2019-04-01T10:05:25.857Z,6.30
2019-04-01T10:06:25.839Z,6.40
2019-04-01T10:07:25.856Z,6.70
2019-04-01T10:08:41.110Z,6.00
2019-04-01T10:09:25.785Z,6.30
2019-04-01T10:10:25.766Z,6.70
2019-04-01T10:11:25.747Z,6.50
2019-04-01T10:12:25.730Z,6.00
2019-04-01T10:13:25.727Z,6.40
2019-04-01T10:14:25.698Z,6.20
2019-04-01T10:15:25.675Z,6.30
2019-04-01T10:16:26.601Z,6.60
2019-04-01T10:17:25.639Z,6.60
2019-04-01T10:18:25.636Z,7.50
2019-04-01T10:19:25.605Z,7.00
2019-04-01T10:20:25.588Z,7.50
2019-04-01T10:21:25.567Z,7.30
2019-04-01T10:22:25.551Z,7.30
2019-04-01T10:23:25.546Z,7.50
2019-04-01T10:24:25.516Z,7.40
2019-04-01T10:25:25.498Z,7.10
2019-04-01T10:26:25.481Z,6.90
2019-04-01T10:27:25.466Z,7.40
2019-04-01T10:28:25.463Z,7.20
2019-04-01T10:29:25.426Z,7.10
2019-04-01T10:30:25.408Z,6.90
2019-04-01T10:31:25.391Z,7.50
2019-04-01T10:32:25.377Z,7.20
2019-04-01T10:33:25.359Z,7.60
2019-04-01T10:34:25.355Z,7.00
2019-04-01T10:35:25.323Z,7.10
2019-04-01T10:36:25.308Z,7.30
2019-04-01T10:37:25.293Z,7.70
2019-04-01T10:38:34.057Z,8.00
2019-04-01T10:39:25.252Z,8.60
2019-04-01T10:40:25.236Z,8.00
2019-04-01T10:41:25.219Z,7.50
2019-04-01T10:42:25.238Z,7.80
2019-04-01T10:43:25.185Z,7.70
2019-04-01T10:44:25.183Z,8.40
2019-04-01T10:45:25.149Z,7.20
2019-04-01T10:46:25.142Z,6.90
2019-04-01T10:47:25.130Z,7.10
2019-04-01T10:48:25.189Z,8.40
2019-04-01T10:49:25.138Z,8.80
2019-04-01T11:14:13.015Z,7.50
2019-04-01T11:15:15.556Z,9.40
2019-04-01T11:16:12.975Z,8.50
2019-04-01T11:17:12.939Z,9.80
2019-04-01T11:18:12.922Z,9.80
2019-04-01T11:19:12.904Z,9.70
2019-04-01T11:20:12.884Z,10.40
2019-04-01T11:21:12.884Z,9.80
2019-04-01T11:22:12.849Z,9.30
2019-04-01T11:23:12.831Z,10.10
2019-04-01T11:24:12.815Z,9.90
2019-04-01T11:25:12.798Z,9.90
2019-04-01T11:26:12.797Z,9.70
2019-04-01T11:27:12.765Z,10.90
2019-04-01T11:28:12.745Z,10.70
2019-04-01T11:29:12.729Z,10.50
2019-04-01T11:30:13.927Z,11.10
2019-04-01T11:31:12.709Z,11.70
2019-04-01T11:32:13.579Z,10.70
2019-04-01T11:33:12.674Z,11.90
2019-04-01T11:34:12.650Z,11.30
2019-04-01T11:35:12.680Z,11.40
2019-04-01T11:36:13.889Z,10.20
2019-04-01T11:37:12.602Z,10.60
2019-04-01T11:38:12.611Z,10.30
2019-04-01T11:39:12.614Z,11.10
2019-04-01T11:40:12.853Z,11.30
2019-04-01T11:41:12.583Z,10.60
2019-04-01T11:42:12.591Z,10.80
2019-04-01T11:43:12.542Z,11.00
2019-04-01T11:44:12.496Z,11.00
2019-04-01T11:45:12.491Z,10.90
2019-04-01T11:46:12.937Z,11.50
2019-04-01T11:47:12.446Z,10.90
2019-04-01T11:48:12.484Z,10.90
2019-04-01T11:49:12.420Z,11.80
2019-04-01T11:50:12.411Z,11.90
2019-04-01T11:51:12.415Z,11.50
2019-04-01T11:52:15.433Z,11.10
2019-04-01T11:53:12.353Z,11.70
2019-04-01T11:54:12.333Z,12.00
2019-04-01T11:55:12.324Z,11.70
2019-04-01T11:56:12.319Z,12.70
2019-04-01T11:57:12.293Z,11.80
2019-04-01T11:58:12.301Z,11.00
2019-04-01T11:59:12.260Z,12.60
2019-04-01T12:00:13.222Z,12.20
2019-04-01T12:01:12.248Z,10.90
2019-04-01T12:02:12.218Z,12.10
2019-04-01T12:03:12.203Z,12.00
2019-04-01T12:04:12.189Z,11.70
2019-04-01T12:05:12.174Z,12.20
2019-04-01T12:06:12.357Z,11.30
2019-04-01T12:07:12.198Z,11.70
2019-04-01T12:08:12.146Z,10.90
2019-04-01T12:09:12.120Z,11.70
2019-04-01T12:10:12.152Z,12.10
2019-04-01T12:11:12.105Z,11.90
2019-04-01T12:12:23.702Z,11.60
2019-04-01T12:13:12.062Z,11.90
2019-04-01T12:14:12.058Z,12.20
2019-04-01T12:15:12.787Z,11.70
2019-04-01T12:16:12.039Z,11.30
2019-04-01T12:17:12.013Z,12.00
2019-04-01T12:18:11.997Z,11.40
2019-04-01T12:19:11.988Z,12.60
2019-04-01T12:20:11.971Z,12.50
2019-04-01T12:21:11.980Z,11.60
2019-04-01T12:22:11.943Z,11.60
2019-04-01T12:23:11.935Z,11.70
2019-04-01T12:24:11.921Z,11.60
2019-04-01T12:25:11.909Z,12.20
2019-04-01T12:26:15.487Z,12.90
2019-04-01T12:27:11.896Z,11.80
2019-04-01T12:28:11.872Z,12.10
2019-04-01T12:29:12.429Z,12.70
2019-04-01T12:30:11.845Z,12.00
2019-04-01T12:31:12.976Z,11.80
2019-04-01T12:32:11.838Z,12.70
2019-04-01T12:33:11.964Z,12.50
2019-04-01T12:34:11.800Z,12.30
2019-04-01T12:35:11.799Z,12.10
2019-04-01T12:36:12.110Z,11.90
2019-04-01T12:37:11.778Z,12.70
2019-04-01T12:38:11.749Z,11.60
2019-04-01T12:39:11.737Z,12.40
2019-04-01T12:40:11.722Z,12.40
2019-04-01T12:41:11.711Z,12.20
2019-04-01T12:42:11.700Z,12.70
2019-04-01T12:43:11.703Z,11.70
2019-04-01T12:44:11.677Z,13.40
2019-04-01T12:45:11.672Z,12.80
2019-04-01T12:46:11.656Z,12.80
2019-04-01T12:47:11.644Z,12.80
2019-04-01T12:48:11.652Z,12.40
2019-04-01T12:49:11.618Z,12.30
2019-04-01T12:50:11.624Z,13.00
2019-04-01T12:51:11.599Z,13.30
2019-04-01T12:52:11.583Z,13.20
2019-04-01T12:53:11.583Z,12.90
2019-04-01T12:54:11.559Z,13.10
2019-04-01T12:55:11.548Z,12.60
2019-04-01T12:56:11.539Z,13.70
2019-04-01T12:57:11.531Z,12.80
2019-04-01T12:58:11.538Z,13.30
2019-04-01T12:59:11.508Z,12.10
2019-04-01T13:00:11.493Z,11.50
2019-04-01T13:01:11.484Z,11.80
2019-04-01T13:02:11.488Z,11.90
2019-04-01T13:03:11.466Z,12.50
2019-04-01T13:04:11.450Z,13.10
2019-04-01T13:05:11.441Z,13.30
2019-04-01T13:06:11.437Z,13.60
2019-04-01T13:07:11.435Z,12.90
2019-04-01T13:08:11.410Z,12.80
2019-04-01T13:09:11.396Z,12.80
2019-04-01T13:10:11.387Z,12.30
2019-04-01T13:11:11.377Z,12.70
2019-04-01T13:12:11.385Z,13.80
2019-04-01T13:13:13.018Z,12.30
2019-04-01T13:14:11.359Z,12.70
2019-04-01T13:15:12.602Z,12.70
2019-04-01T13:16:11.327Z,13.60
2019-04-01T13:17:11.328Z,12.90
2019-04-01T13:18:11.310Z,13.00
2019-04-01T13:19:11.298Z,12.70
2019-04-01T13:20:11.284Z,13.30
2019-04-01T13:21:11.464Z,12.40
2019-04-01T13:22:11.300Z,12.60
2019-04-01T13:23:11.254Z,12.30
2019-04-01T13:24:11.245Z,12.20
2019-04-01T13:25:11.235Z,13.40
2019-04-01T13:26:11.225Z,12.60
2019-04-01T13:27:11.219Z,12.90
2019-04-01T13:28:11.222Z,13.00